createdAt,value
2023-04-02T00:00:09.720Z,99373.75
2023-04-02T00:05:18.157Z,99385.63
2023-04-02T00:10:27.955Z,99391.03
2023-04-02T00:15:26.997Z,99401.81
2023-04-02T00:20:27.359Z,99403.28
2023-04-02T00:25:43.092Z,99420.47
2023-04-02T00:31:10.662Z,99425.47
2023-04-02T00:36:09.634Z,99432.78
2023-04-02T00:41:08.511Z,99438.66
2023-04-02T00:46:24.185Z,99454.88
2023-04-02T00:51:26.017Z,99471.22
2023-04-02T00:56:36.646Z,99479.28
2023-04-02T01:01:37.838Z,99486.56
2023-04-02T01:06:38.920Z,99491.00
2023-04-02T01:11:52.822Z,99500.59
2023-04-02T01:17:10.845Z,99502.63
2023-04-02T01:22:21.875Z,99517.81
2023-04-02T01:27:23.642Z,99526.69
2023-04-02T01:32:24.866Z,99529.75
2023-04-02T01:37:36.842Z,99549.00
2023-04-02T01:43:08.721Z,99565.75
2023-04-02T01:48:16.889Z,99569.03
2023-04-02T01:53:18.023Z,99590.19
2023-04-02T01:58:26.337Z,99598.50
2023-04-02T02:03:27.157Z,99606.03
2023-04-02T02:08:34.689Z,99619.19
2023-04-02T02:13:34.000Z,99630.09
2023-04-02T02:18:33.357Z,99632.66
2023-04-02T02:23:32.624Z,99639.44
2023-04-02T02:28:36.689Z,99651.28
2023-04-02T02:33:58.899Z,99654.31
2023-04-02T02:39:25.626Z,99662.59
2023-04-02T02:44:27.554Z,99673.16
2023-04-02T02:49:38.153Z,99681.47
2023-04-02T02:54:42.582Z,99697.19
2023-04-02T02:59:43.085Z,99701.53
2023-04-02T03:04:47.363Z,99706.97
2023-04-02T03:10:12.521Z,99723.13
2023-04-02T03:15:32.289Z,99731.44
2023-04-02T03:20:31.230Z,99740.81
2023-04-02T03:26:01.977Z,99751.09
2023-04-02T03:31:33.856Z,99758.03
2023-04-02T03:36:38.508Z,99777.38
2023-04-02T03:41:47.538Z,99794.34
2023-04-02T03:46:57.496Z,99805.13
2023-04-02T03:52:05.888Z,99816.94
2023-04-02T03:57:18.263Z,99819.81
2023-04-02T04:02:26.861Z,99844.16
2023-04-02T04:07:54.237Z,99847.09
2023-04-02T04:13:01.438Z,99862.78
2023-04-02T04:18:38.042Z,99873.88
2023-04-02T04:23:50.212Z,99887.59
2023-04-02T04:29:12.588Z,99890.44
2023-04-02T04:34:16.650Z,99906.97
2023-04-02T04:39:23.967Z,99920.44
2023-04-02T04:44:28.804Z,99934.31
2023-04-02T04:50:08.654Z,99943.03
2023-04-02T04:55:42.978Z,99958.97
2023-04-02T05:01:07.723Z,99967.38
2023-04-02T05:06:35.719Z,99984.56
2023-04-02T05:11:43.790Z,99999.13
2023-04-02T05:16:49.986Z,100016.56
2023-04-02T05:22:00.068Z,100031.91
2023-04-02T05:27:02.016Z,100033.97
2023-04-02T05:32:28.555Z,100049.84
2023-04-02T05:37:31.116Z,100055.50
2023-04-02T05:42:37.783Z,100078.81
2023-04-02T05:47:44.630Z,100083.47
2023-04-02T05:53:21.822Z,100090.84
2023-04-02T05:58:37.320Z,100102.34
2023-04-02T06:04:22.354Z,100106.16
2023-04-02T06:09:29.470Z,100116.56
2023-04-02T06:14:28.496Z,100130.66
2023-04-02T06:19:37.397Z,100141.84
2023-04-02T06:24:40.367Z,100147.88
2023-04-02T06:29:44.248Z,100154.63
2023-04-02T06:34:47.651Z,100172.34
2023-04-02T06:39:48.966Z,100182.84
2023-04-02T06:44:50.158Z,100183.72
2023-04-02T06:50:41.001Z,100199.56
2023-04-02T06:55:47.004Z,100215.75
2023-04-02T07:00:50.811Z,100218.28
2023-04-02T07:06:05.425Z,100231.91
2023-04-02T07:11:06.207Z,100244.66
2023-04-02T07:16:06.065Z,100253.78
2023-04-02T07:21:05.515Z,100255.19
2023-04-02T07:26:05.398Z,100265.75
2023-04-02T07:31:04.338Z,100266.13
2023-04-02T07:36:03.342Z,100280.19
2023-04-02T07:41:06.578Z,100297.38
2023-04-02T07:46:06.327Z,100304.97
2023-04-02T07:51:06.135Z,100313.34
2023-04-02T07:56:07.286Z,100323.44
2023-04-02T08:01:19.489Z,100326.78
2023-04-02T08:06:18.660Z,100342.72
2023-04-02T08:11:17.729Z,100352.88
2023-04-02T08:16:16.921Z,100358.03
2023-04-02T08:21:16.618Z,100358.00
2023-04-02T08:26:18.982Z,100373.06
2023-04-02T08:31:18.148Z,100385.50
2023-04-02T08:36:18.410Z,100381.38
2023-04-02T08:41:24.656Z,100398.31
2023-04-02T08:46:30.711Z,100404.91
2023-04-02T08:51:34.333Z,100418.34
2023-04-02T08:57:06.690Z,100422.91
2023-04-02T09:02:35.813Z,100434.06
2023-04-02T09:07:34.972Z,100433.44
2023-04-02T09:12:34.645Z,100447.91
2023-04-02T09:17:42.699Z,100448.94
2023-04-02T09:22:48.564Z,100455.50
2023-04-02T09:27:50.457Z,100473.50
2023-04-02T09:32:58.121Z,100479.06
2023-04-02T09:38:09.088Z,100489.22
2023-04-02T09:43:18.522Z,100499.13
2023-04-02T09:48:22.253Z,100518.94
2023-04-02T09:53:35.563Z,100525.91
2023-04-02T09:58:34.385Z,100533.72
2023-04-02T10:03:34.456Z,100533.59
2023-04-02T10:08:33.433Z,100546.59
2023-04-02T10:13:51.566Z,100552.38
2023-04-02T10:18:59.478Z,100566.00
2023-04-02T10:23:59.685Z,100570.41
2023-04-02T10:29:21.644Z,100583.00
2023-04-02T10:34:24.934Z,100584.63
2023-04-02T10:39:38.683Z,100589.63
2023-04-02T10:44:47.822Z,100602.50
2023-04-02T10:50:08.309Z,100601.22
2023-04-02T10:55:31.952Z,100605.41
2023-04-02T11:00:44.848Z,100617.41
2023-04-02T11:05:46.765Z,100618.66
2023-04-02T11:10:59.231Z,100625.03
2023-04-02T11:15:58.238Z,100638.06
2023-04-02T11:21:09.123Z,100642.22
2023-04-02T11:26:32.623Z,100649.25
2023-04-02T11:31:32.155Z,100650.47
2023-04-02T11:36:53.032Z,100648.34
2023-04-02T11:42:03.082Z,100664.56
2023-04-02T11:47:16.625Z,100668.28
2023-04-02T11:52:23.921Z,100674.47
2023-04-02T11:58:00.485Z,100683.78
2023-04-02T12:03:36.118Z,100691.44
2023-04-02T12:08:59.028Z,100693.94
2023-04-02T12:13:59.122Z,100697.19
2023-04-02T12:18:59.406Z,100697.41
2023-04-02T12:23:59.579Z,100700.94
2023-04-02T12:29:27.192Z,100713.09
2023-04-02T12:34:29.026Z,100718.13
2023-04-02T12:39:28.483Z,100714.84
2023-04-02T12:44:29.666Z,100726.94
2023-04-02T12:49:37.192Z,100726.66
2023-04-02T12:54:51.162Z,100726.78
2023-04-02T12:59:52.229Z,100735.94
2023-04-02T13:05:01.032Z,100739.41
2023-04-02T13:10:06.366Z,100747.00
2023-04-02T13:15:08.324Z,100753.34
2023-04-02T13:20:30.974Z,100754.00
2023-04-02T13:25:36.504Z,100761.25
2023-04-02T13:30:35.558Z,100771.66
2023-04-02T13:35:34.598Z,100773.09
2023-04-02T13:40:34.941Z,100777.50
2023-04-02T13:45:37.805Z,100789.13
2023-04-02T13:50:36.968Z,100797.38
2023-04-02T13:55:40.185Z,100799.56
2023-04-02T14:00:39.058Z,100799.00
2023-04-02T14:05:49.889Z,100814.78
2023-04-02T14:11:03.444Z,100811.47
2023-04-02T14:16:34.678Z,100820.16
2023-04-02T14:21:45.985Z,100833.06
2023-04-02T14:27:07.539Z,100839.66
2023-04-02T14:32:08.023Z,100846.72
2023-04-02T14:37:38.258Z,100851.47
2023-04-02T14:42:52.139Z,100855.81
2023-04-02T14:47:57.675Z,100857.03
2023-04-02T14:53:02.211Z,100859.34
2023-04-02T14:58:05.564Z,100867.00
2023-04-02T15:03:07.634Z,100874.81
2023-04-02T15:08:15.600Z,100871.75
2023-04-02T15:13:21.380Z,100870.72
2023-04-02T15:18:20.164Z,100868.47
2023-04-02T15:23:51.113Z,100882.13
2023-04-02T15:29:28.869Z,100880.06
2023-04-02T15:35:01.014Z,100889.59
2023-04-02T15:40:02.844Z,100898.72
2023-04-02T15:45:09.660Z,100901.00
2023-04-02T15:50:42.884Z,100903.28
2023-04-02T15:56:04.232Z,100908.19
2023-04-02T16:01:29.548Z,100914.63
2023-04-02T16:06:56.661Z,100919.19
2023-04-02T16:12:17.051Z,100921.28
2023-04-02T16:17:25.388Z,100929.59
2023-04-02T16:22:28.437Z,100941.19
2023-04-02T16:27:40.349Z,100945.13
2023-04-02T16:32:51.459Z,100948.84
2023-04-02T16:38:07.857Z,100953.22
2023-04-02T16:43:09.690Z,100964.78
2023-04-02T16:48:24.136Z,100968.31
2023-04-02T16:54:01.115Z,100976.63
2023-04-02T16:59:48.926Z,100971.44
2023-04-02T17:04:53.225Z,100975.38
2023-04-02T17:09:57.309Z,100981.19
2023-04-02T17:15:11.516Z,100988.59
2023-04-02T17:20:21.062Z,100995.84
2023-04-02T17:25:25.960Z,100995.22
2023-04-02T17:30:48.002Z,101003.16
2023-04-02T17:53:52.623Z,101018.00
2023-04-02T17:59:29.917Z,101009.91
2023-04-02T18:04:41.775Z,101020.16
2023-04-02T18:09:46.999Z,101035.38
2023-04-02T18:15:23.490Z,101042.03
2023-04-02T18:20:37.338Z,101048.19
2023-04-02T18:26:07.001Z,101051.56
2023-04-02T18:31:11.886Z,101057.59
2023-04-02T18:36:28.469Z,101067.75
2023-04-02T18:41:36.522Z,101071.56
2023-04-02T18:46:41.423Z,101083.84
2023-04-02T18:51:40.356Z,101087.66
2023-04-02T18:56:40.491Z,101092.47
2023-04-02T19:01:44.196Z,101103.97
2023-04-02T19:06:47.204Z,101107.91
2023-04-02T19:11:47.840Z,101115.63
2023-04-02T19:17:23.244Z,101116.94
2023-04-02T19:22:49.898Z,101120.13
2023-04-02T19:28:07.249Z,101127.78
2023-04-02T19:33:15.007Z,101128.31
2023-04-02T19:38:39.873Z,101134.81
2023-04-02T19:43:38.646Z,101139.03
2023-04-02T19:48:47.974Z,101144.41
2023-04-02T19:53:46.700Z,101137.44
2023-04-02T19:58:45.835Z,101143.47
2023-04-02T20:03:44.836Z,101145.31
2023-04-02T20:08:43.768Z,101145.19
2023-04-02T20:13:45.189Z,101147.28
2023-04-02T20:18:44.007Z,101145.59
2023-04-02T20:23:42.934Z,101158.34
2023-04-02T20:28:41.826Z,101160.72
2023-04-02T20:33:41.384Z,101172.31
2023-04-02T20:38:40.546Z,101172.09
2023-04-02T20:43:40.887Z,101179.66
2023-04-02T20:48:43.289Z,101185.44
2023-04-02T20:58:23.274Z,101191.94
2023-04-02T21:03:22.153Z,101187.94
2023-04-02T21:08:21.282Z,101195.81
2023-04-02T21:13:20.437Z,101198.28
2023-04-02T21:18:19.702Z,101194.72
2023-04-02T21:23:18.489Z,101197.69
2023-04-02T21:28:17.403Z,101198.19
2023-04-02T21:33:16.332Z,101200.81
2023-04-02T21:38:15.380Z,101212.03
2023-04-02T21:43:14.124Z,101207.97
2023-04-02T21:48:12.968Z,101215.78
2023-04-02T21:53:11.910Z,101215.44
2023-04-02T21:58:10.773Z,101219.66
2023-04-02T22:03:11.730Z,101225.03
2023-04-02T22:08:13.170Z,101229.13
2023-04-02T22:13:11.983Z,101230.22
2023-04-02T22:18:10.960Z,101240.78
2023-04-02T22:23:10.326Z,101241.88
2023-04-02T22:28:09.475Z,101243.22
2023-04-02T22:33:08.622Z,101246.56
2023-04-02T22:38:07.625Z,101248.66
2023-04-02T22:43:06.432Z,101260.16
2023-04-02T22:48:05.442Z,101271.19
2023-04-02T22:53:04.680Z,101267.09
2023-04-02T22:58:03.500Z,101272.59
2023-04-02T23:03:02.675Z,101285.81
2023-04-02T23:08:01.613Z,101293.19
2023-04-02T23:13:00.686Z,101297.47
2023-04-02T23:17:59.558Z,101301.78
2023-04-02T23:22:58.350Z,101303.56
2023-04-02T23:27:57.215Z,101301.34
2023-04-02T23:32:56.223Z,101308.75
2023-04-02T23:37:55.005Z,101312.72
2023-04-02T23:42:53.781Z,101308.00
2023-04-02T23:47:52.596Z,101310.78
2023-04-02T23:52:51.505Z,101322.72
2023-04-02T23:57:51.449Z,101318.44
